Time;durP1;ratioP1;P1;durP2;ratioP2;P2;SDS_P1;SDS_P2;PMS_P1;PMS_P2;Temp;Humidity;BMP_temperature;BMP_pressure;BME280_temperature;BME280_humidity;BME280_pressure;Samples;Min_cycle;Max_cycle;Signal;HPM_P1;HPM_P2
2022/05/24 00:02:07;;;;;;;1.33;1.13;;;;;;;;;;4913768;28;20504;-64
2022/05/24 00:04:32;;;;;;;1.60;1.10;;;;;;;;;;4913296;28;20409;-64
2022/05/24 00:06:58;;;;;;;1.65;0.90;;;;;;;;;;4912905;28;20101;-65
2022/05/24 00:09:25;;;;;;;3.08;1.10;;;;;;;;;;4913593;28;20372;-64
2022/05/24 00:11:50;;;;;;;1.33;0.95;;;;;;;;;;4913383;28;20031;-64
2022/05/24 00:15:19;;;;;;;1.45;0.93;;;;;;;;;;4913122;28;20062;-65
2022/05/24 00:17:01;;;;;;;1.60;1.15;;;;;;;;;;4913835;28;20442;-64
2022/05/24 00:19:26;;;;;;;1.27;1.00;;;;;;;;;;4913108;28;20456;-64
2022/05/24 00:21:52;;;;;;;3.42;1.77;;;;;;;;;;4913132;28;20357;-64
2022/05/24 00:24:17;;;;;;;1.35;1.00;;;;;;;;;;4912672;28;20353;-64
2022/05/24 00:26:42;;;;;;;1.25;0.93;;;;;;;;;;4913201;28;20429;-64
2022/05/24 00:29:07;;;;;;;1.48;0.90;;;;;;;;;;4913105;28;20517;-64
2022/05/24 00:31:33;;;;;;;1.83;0.90;;;;;;;;;;4913193;28;20457;-65
2022/05/24 00:33:58;;;;;;;1.27;0.88;;;;;;;;;;4913847;28;20432;-65
2022/05/24 00:36:23;;;;;;;0.98;0.70;;;;;;;;;;4912900;28;20130;-65
2022/05/24 00:38:49;;;;;;;3.85;0.90;;;;;;;;;;4912611;28;20431;-64
2022/05/24 00:41:31;;;;;;;1.63;1.02;;;;;;;;;;4912895;28;20346;-64
2022/05/24 00:44:14;;;;;;;1.60;1.00;;;;;;;;;;4912377;28;20476;-64
2022/05/24 00:46:42;;;;;;;0.95;0.85;;;;;;;;;;4895265;28;20081;-63
2022/05/24 00:49:12;;;;;;;1.45;1.05;;;;;;;;;;4895375;28;20352;-64
2022/05/24 00:51:41;;;;;;;1.80;0.98;;;;;;;;;;4913283;28;20433;-64
2022/05/24 00:54:07;;;;;;;1.00;0.80;;;;;;;;;;4895207;28;20425;-64
2022/05/24 00:56:57;;;;;;;2.17;0.80;;;;;;;;;;4912233;28;20345;-64
2022/05/24 00:59:30;;;;;;;0.88;0.65;;;;;;;;;;4911641;28;20464;-65
2022/05/24 01:01:56;;;;;;;1.52;1.02;;;;;;;;;;4910892;28;20452;-64
2022/05/24 01:04:21;;;;;;;1.17;0.82;;;;;;;;;;4912657;28;20429;-64
2022/05/24 01:06:48;;;;;;;1.40;0.98;;;;;;;;;;4911948;28;20448;-65
2022/05/24 01:09:45;;;;;;;1.10;0.90;;;;;;;;;;4913995;28;20426;-64
2022/05/24 01:12:20;;;;;;;0.90;0.80;;;;;;;;;;4913093;28;20349;-65
2022/05/24 01:14:46;;;;;;;1.77;1.10;;;;;;;;;;4894691;28;20052;-65
2022/05/24 01:17:12;;;;;;;1.98;1.10;;;;;;;;;;4912359;28;20438;-64
2022/05/24 01:19:45;;;;;;;1.08;0.82;;;;;;;;;;4895137;28;20460;-64
2022/05/24 01:22:48;;;;;;;0.60;0.60;;;;;;;;;;4894519;28;20389;-66
2022/05/24 01:25:19;;;;;;;1.13;0.90;;;;;;;;;;4911518;28;20345;-66
2022/05/24 01:27:44;;;;;;;0.82;0.80;;;;;;;;;;4911956;28;20308;-65
2022/05/24 01:30:10;;;;;;;1.83;1.20;;;;;;;;;;4912012;28;20349;-64
2022/05/24 01:38:05;;;;;;;1.40;1.00;;;;;;;;;;4897799;28;20465;-63
2022/05/24 01:40:31;;;;;;;1.25;1.15;;;;;;;;;;4912419;28;20422;-65
2022/05/24 01:42:56;;;;;;;2.05;0.98;;;;;;;;;;4911122;28;20334;-63
2022/05/24 01:45:28;;;;;;;1.73;1.02;;;;;;;;;;4918035;28;20318;-64
2022/05/24 01:47:57;;;;;;;0.80;0.80;;;;;;;;;;4932011;28;20539;-64
2022/05/24 01:50:23;;;;;;;2.08;1.20;;;;;;;;;;4914012;28;20345;-64
2022/05/24 01:52:52;;;;;;;1.63;1.25;;;;;;;;;;4930620;28;20322;-64
2022/05/24 01:55:28;;;;;;;;;;;;;;;;;;4913849;28;20038;-63
2022/05/24 01:57:56;;;;;;;2.10;1.20;;;;;;;;;;4931856;28;20272;-64
2022/05/24 02:00:21;;;;;;;1.45;1.17;;;;;;;;;;4912757;28;20500;-66
2022/05/24 02:02:47;;;;;;;1.42;1.05;;;;;;;;;;4931389;28;20510;-64
2022/05/24 02:05:28;;;;;;;1.50;1.20;;;;;;;;;;4930451;28;20471;-64
2022/05/24 02:07:53;;;;;;;1.40;1.08;;;;;;;;;;4913247;28;20388;-64
2022/05/24 02:10:19;;;;;;;1.00;0.90;;;;;;;;;;4930360;28;20096;-65
2022/05/24 02:12:52;;;;;;;2.30;1.38;;;;;;;;;;4930549;28;20134;-64
2022/05/24 02:15:21;;;;;;;2.30;1.08;;;;;;;;;;4930979;28;20322;-64
2022/05/24 02:17:56;;;;;;;1.20;1.00;;;;;;;;;;4912396;28;20416;-65
2022/05/24 02:20:30;;;;;;;1.10;1.00;;;;;;;;;;4930574;28;20460;-64
2022/05/24 02:22:55;;;;;;;1.95;1.25;;;;;;;;;;4931534;28;20370;-65
2022/05/24 02:25:35;;;;;;;1.42;1.20;;;;;;;;;;4930346;28;20464;-64
2022/05/24 02:28:02;;;;;;;1.33;1.17;;;;;;;;;;4930332;28;20377;-64
2022/05/24 02:30:30;;;;;;;1.40;1.10;;;;;;;;;;4929784;28;20429;-65
2022/05/24 02:32:55;;;;;;;1.60;1.20;;;;;;;;;;4930125;28;20507;-64
2022/05/24 02:35:21;;;;;;;2.35;1.27;;;;;;;;;;4930096;28;20457;-65
2022/05/24 02:37:46;;;;;;;2.03;1.17;;;;;;;;;;4930288;28;20419;-65
2022/05/24 02:42:57;;;;;;;1.58;1.13;;;;;;;;;;4931654;28;20583;-65
2022/05/24 02:45:22;;;;;;;2.00;1.10;;;;;;;;;;4930044;28;20365;-65
2022/05/24 02:47:48;;;;;;;2.67;1.52;;;;;;;;;;4930000;28;20452;-63
2022/05/24 02:50:13;;;;;;;2.17;1.50;;;;;;;;;;4930072;28;20469;-64
2022/05/24 02:52:40;;;;;;;1.80;1.10;;;;;;;;;;4930473;28;20439;-64
2022/05/24 02:55:09;;;;;;;1.20;1.08;;;;;;;;;;4930399;28;20548;-65
2022/05/24 02:57:35;;;;;;;1.80;1.20;;;;;;;;;;4929640;28;20113;-64
2022/05/24 03:00:00;;;;;;;1.48;1.17;;;;;;;;;;4930826;28;20433;-64
2022/05/24 03:02:25;;;;;;;2.80;1.48;;;;;;;;;;4930442;28;20435;-64
2022/05/24 03:04:51;;;;;;;2.20;1.38;;;;;;;;;;4929922;28;20097;-65
2022/05/24 03:10:00;;;;;;;1.23;0.95;;;;;;;;;;4929985;28;20096;-66
2022/05/24 03:15:09;;;;;;;2.13;1.20;;;;;;;;;;4930471;28;20465;-64
2022/05/24 03:17:35;;;;;;;1.90;1.20;;;;;;;;;;4929982;28;20332;-65
2022/05/24 03:20:00;;;;;;;1.15;0.98;;;;;;;;;;4930310;28;20026;-65
2022/05/24 03:22:25;;;;;;;1.48;1.00;;;;;;;;;;4931803;28;20433;-64
2022/05/24 03:24:51;;;;;;;2.00;1.10;;;;;;;;;;4933141;28;20080;-64
2022/05/24 03:27:16;;;;;;;2.10;1.38;;;;;;;;;;4933358;28;20455;-64
2022/05/24 03:29:43;;;;;;;1.27;1.10;;;;;;;;;;4932865;28;20449;-65
2022/05/24 03:32:09;;;;;;;1.77;1.13;;;;;;;;;;4935063;28;20425;-64
2022/05/24 03:34:35;;;;;;;1.90;1.30;;;;;;;;;;4934259;28;20444;-63
2022/05/24 03:37:01;;;;;;;1.42;1.00;;;;;;;;;;4934994;28;20315;-64
2022/05/24 03:39:26;;;;;;;2.22;1.63;;;;;;;;;;4933950;28;20381;-65
2022/05/24 03:41:52;;;;;;;2.38;1.25;;;;;;;;;;4933055;28;20422;-64
2022/05/24 03:44:17;;;;;;;2.15;1.27;;;;;;;;;;4934654;28;20071;-63
2022/05/24 03:46:42;;;;;;;2.35;1.27;;;;;;;;;;4932835;28;20572;-65
2022/05/24 03:49:08;;;;;;;1.85;1.30;;;;;;;;;;4932954;28;20388;-65
2022/05/24 03:51:34;;;;;;;1.70;1.10;;;;;;;;;;4934122;28;20023;-64
2022/05/24 03:53:59;;;;;;;2.90;1.45;;;;;;;;;;4932517;28;20441;-65
2022/05/24 03:56:24;;;;;;;4.90;1.50;;;;;;;;;;4932547;28;20092;-64
2022/05/24 03:58:50;;;;;;;2.35;1.55;;;;;;;;;;4915269;28;20487;-65
2022/05/24 04:01:16;;;;;;;2.00;1.27;;;;;;;;;;4932458;28;20541;-64
2022/05/24 04:03:41;;;;;;;2.33;1.30;;;;;;;;;;4932693;28;20666;-64
2022/05/24 04:06:07;;;;;;;1.45;1.33;;;;;;;;;;4932480;28;20413;-65
2022/05/24 04:08:33;;;;;;;1.67;1.20;;;;;;;;;;4932569;28;20050;-65
2022/05/24 04:11:03;;;;;;;1.73;1.15;;;;;;;;;;4933166;28;20049;-65
2022/05/24 04:13:29;;;;;;;1.90;1.52;;;;;;;;;;4932589;28;20093;-64
2022/05/24 04:15:54;;;;;;;2.55;1.33;;;;;;;;;;4932850;28;20034;-64
2022/05/24 04:18:20;;;;;;;1.92;1.42;;;;;;;;;;4932862;28;20049;-63
2022/05/24 04:20:45;;;;;;;1.63;1.15;;;;;;;;;;4933811;28;20085;-63
2022/05/24 04:23:11;;;;;;;1.90;1.30;;;;;;;;;;4932289;28;20425;-63
2022/05/24 04:25:37;;;;;;;2.08;1.52;;;;;;;;;;4932198;28;20463;-63
2022/05/24 04:28:02;;;;;;;2.95;1.27;;;;;;;;;;4932087;28;20330;-64
2022/05/24 04:30:28;;;;;;;1.10;1.00;;;;;;;;;;4932559;28;20349;-65
2022/05/24 04:32:53;;;;;;;2.05;1.17;;;;;;;;;;4931666;28;20097;-64
2022/05/24 04:35:18;;;;;;;2.22;1.35;;;;;;;;;;4933049;28;20415;-63
2022/05/24 04:37:44;;;;;;;4.57;1.50;;;;;;;;;;4931923;28;20056;-65
2022/05/24 04:40:09;;;;;;;2.72;1.48;;;;;;;;;;4931941;28;20553;-64
2022/05/24 04:42:35;;;;;;;2.55;1.67;;;;;;;;;;4931460;28;20333;-65
2022/05/24 04:45:06;;;;;;;2.28;1.33;;;;;;;;;;4931851;28;20457;-65
2022/05/24 04:47:32;;;;;;;1.90;1.27;;;;;;;;;;4931814;28;20321;-64
2022/05/24 04:49:59;;;;;;;1.88;1.27;;;;;;;;;;4931707;28;20092;-65
2022/05/24 04:52:27;;;;;;;1.60;1.30;;;;;;;;;;4932557;28;20409;-64
2022/05/24 04:54:53;;;;;;;2.40;1.25;;;;;;;;;;4932583;28;20445;-65
2022/05/24 04:57:20;;;;;;;1.77;1.30;;;;;;;;;;4932592;28;20483;-65
2022/05/24 04:59:46;;;;;;;3.10;1.30;;;;;;;;;;4931227;28;21181;-64
2022/05/24 05:02:11;;;;;;;1.92;1.30;;;;;;;;;;4931759;28;20444;-64
2022/05/24 05:04:37;;;;;;;2.42;1.30;;;;;;;;;;4931201;28;20117;-64
2022/05/24 05:07:03;;;;;;;2.58;1.48;;;;;;;;;;4932384;28;20417;-66
2022/05/24 05:09:34;;;;;;;2.28;1.45;;;;;;;;;;4931344;28;20528;-64
2022/05/24 05:12:10;;;;;;;1.75;1.30;;;;;;;;;;4932982;28;20531;-63
2022/05/24 05:14:37;;;;;;;2.28;1.40;;;;;;;;;;4931422;28;20352;-64
2022/05/24 05:17:03;;;;;;;2.03;1.52;;;;;;;;;;4931127;28;20368;-64
2022/05/24 05:19:29;;;;;;;1.67;1.10;;;;;;;;;;4931739;28;20403;-64
2022/05/24 05:21:55;;;;;;;1.40;1.20;;;;;;;;;;4931268;28;20412;-65
2022/05/24 05:24:20;;;;;;;2.38;1.73;;;;;;;;;;4931044;28;20429;-65
2022/05/24 05:26:45;;;;;;;6.20;1.27;;;;;;;;;;4931165;28;20368;-64
2022/05/24 05:29:11;;;;;;;2.03;1.50;;;;;;;;;;4931344;28;20388;-64
2022/05/24 05:31:36;;;;;;;1.67;1.20;;;;;;;;;;4931936;28;20407;-63
2022/05/24 05:34:02;;;;;;;1.70;1.30;;;;;;;;;;4931083;28;20481;-65
2022/05/24 05:36:29;;;;;;;3.13;1.20;;;;;;;;;;4931635;28;20377;-65
2022/05/24 05:38:55;;;;;;;2.00;1.30;;;;;;;;;;4930816;28;20034;-65
2022/05/24 05:41:26;;;;;;;1.45;1.30;;;;;;;;;;4930819;28;20057;-63
2022/05/24 05:43:51;;;;;;;1.70;1.35;;;;;;;;;;4931114;28;20376;-64
2022/05/24 05:46:18;;;;;;;2.08;1.50;;;;;;;;;;4930296;28;20385;-64
2022/05/24 05:48:44;;;;;;;1.50;1.33;;;;;;;;;;4932416;28;20038;-65
2022/05/24 05:51:11;;;;;;;3.25;1.38;;;;;;;;;;4930602;28;20034;-64
2022/05/24 05:53:36;;;;;;;1.73;1.10;;;;;;;;;;4931057;28;20369;-64
2022/05/24 05:56:02;;;;;;;2.90;1.45;;;;;;;;;;4931273;28;20376;-64
2022/05/24 05:58:30;;;;;;;1.90;1.50;;;;;;;;;;4931658;28;20364;-65
2022/05/24 06:00:55;;;;;;;2.17;1.30;;;;;;;;;;4930345;28;20345;-64
2022/05/24 06:03:21;;;;;;;5.57;1.40;;;;;;;;;;4931868;28;20152;-65
2022/05/24 06:05:48;;;;;;;1.85;1.38;;;;;;;;;;4930560;28;20326;-64
2022/05/24 06:08:14;;;;;;;2.22;1.45;;;;;;;;;;4931642;28;20352;-63
2022/05/24 06:10:39;;;;;;;2.28;1.33;;;;;;;;;;4929834;28;20361;-64
2022/05/24 06:13:05;;;;;;;2.10;1.60;;;;;;;;;;4930639;28;20405;-66
2022/05/24 06:15:32;;;;;;;4.07;1.20;;;;;;;;;;4912594;28;20027;-64
2022/05/24 06:17:57;;;;;;;2.08;1.27;;;;;;;;;;4931833;28;20368;-66
2022/05/24 06:20:27;;;;;;;1.83;1.50;;;;;;;;;;4930432;28;20319;-64
2022/05/24 06:22:54;;;;;;;1.40;1.30;;;;;;;;;;4930196;28;20362;-64
2022/05/24 06:25:22;;;;;;;2.28;1.45;;;;;;;;;;4930291;28;20045;-65
2022/05/24 06:27:48;;;;;;;1.80;1.40;;;;;;;;;;4930052;28;20026;-64
2022/05/24 06:30:15;;;;;;;1.98;1.30;;;;;;;;;;4930491;28;20303;-64
2022/05/24 06:32:40;;;;;;;1.73;1.30;;;;;;;;;;4929767;28;20429;-64
2022/05/24 06:35:06;;;;;;;1.85;1.30;;;;;;;;;;4930218;28;20468;-64
2022/05/24 06:37:32;;;;;;;1.90;1.50;;;;;;;;;;4930619;28;20571;-64
2022/05/24 06:39:57;;;;;;;2.25;1.38;;;;;;;;;;4930009;28;20338;-63
2022/05/24 06:42:22;;;;;;;3.00;1.52;;;;;;;;;;4930009;28;20345;-64
2022/05/24 06:44:48;;;;;;;2.00;1.42;;;;;;;;;;4929625;28;20556;-64
2022/05/24 06:47:13;;;;;;;2.03;1.40;;;;;;;;;;4929884;28;20384;-63
2022/05/24 06:49:38;;;;;;;2.15;1.48;;;;;;;;;;4929742;28;20034;-65
2022/05/24 06:52:04;;;;;;;2.60;1.70;;;;;;;;;;4929928;28;20449;-64
2022/05/24 06:54:30;;;;;;;3.42;1.20;;;;;;;;;;4929795;28;20521;-63
2022/05/24 06:56:55;;;;;;;1.85;1.00;;;;;;;;;;4913818;28;20437;-64
2022/05/24 07:04:54;;;;;;;2.65;2.30;;;;;;;;;;4933773;28;20364;-64
2022/05/24 07:07:19;;;;;;;2.95;1.10;;;;;;;;;;4934988;28;20371;-64
2022/05/24 07:09:44;;;;;;;1.92;1.52;;;;;;;;;;4934242;28;20322;-64
2022/05/24 07:12:09;;;;;;;2.10;1.30;;;;;;;;;;4933284;28;20452;-65
2022/05/24 07:14:35;;;;;;;2.25;1.42;;;;;;;;;;4934980;28;20464;-65
2022/05/24 07:17:00;;;;;;;1.42;1.27;;;;;;;;;;4934370;28;20499;-63
2022/05/24 07:19:27;;;;;;;1.77;1.42;;;;;;;;;;4933502;28;20057;-64
2022/05/24 07:21:52;;;;;;;1.85;1.30;;;;;;;;;;4933765;28;20349;-64
2022/05/24 07:24:17;;;;;;;1.85;1.27;;;;;;;;;;4933474;28;20333;-64
2022/05/24 07:26:43;;;;;;;2.22;1.35;;;;;;;;;;4934649;28;20086;-65
2022/05/24 07:29:08;;;;;;;1.95;1.33;;;;;;;;;;4932990;28;20431;-65
2022/05/24 07:31:34;;;;;;;2.55;1.60;;;;;;;;;;4933568;28;20499;-64
2022/05/24 07:33:59;;;;;;;1.83;1.30;;;;;;;;;;4933254;28;20508;-64
2022/05/24 07:36:25;;;;;;;1.52;1.10;;;;;;;;;;4933685;28;20321;-65
2022/05/24 07:38:50;;;;;;;2.15;1.27;;;;;;;;;;4933344;28;20369;-65
2022/05/24 07:46:43;;;;;;;1.85;1.30;;;;;;;;;;4933594;28;20436;-64
2022/05/24 07:49:09;;;;;;;2.00;1.40;;;;;;;;;;4933599;28;20449;-64
2022/05/24 07:51:34;;;;;;;2.15;1.40;;;;;;;;;;4932573;28;20492;-64
2022/05/24 07:53:59;;;;;;;2.60;1.40;;;;;;;;;;4933964;28;20421;-64
2022/05/24 07:56:25;;;;;;;1.65;1.15;;;;;;;;;;4932667;28;20341;-63
2022/05/24 07:58:51;;;;;;;1.98;1.50;;;;;;;;;;4932301;28;20443;-65
2022/05/24 08:01:16;;;;;;;2.10;1.48;;;;;;;;;;4932542;28;20467;-65
2022/05/24 08:03:42;;;;;;;2.47;1.50;;;;;;;;;;4932552;28;20373;-64
2022/05/24 08:06:08;;;;;;;1.45;1.27;;;;;;;;;;4932925;28;20520;-64
2022/05/24 08:08:34;;;;;;;2.67;1.23;;;;;;;;;;4931868;28;20326;-64
2022/05/24 08:11:00;;;;;;;3.40;1.33;;;;;;;;;;4932604;28;20429;-64
2022/05/24 08:13:25;;;;;;;1.70;1.30;;;;;;;;;;4932234;28;20421;-64
2022/05/24 08:15:52;;;;;;;3.47;1.10;;;;;;;;;;4932518;28;20022;-65
2022/05/24 08:18:18;;;;;;;1.55;1.20;;;;;;;;;;4932229;28;20425;-64
2022/05/24 08:20:43;;;;;;;2.03;1.23;;;;;;;;;;4932526;28;20118;-63
2022/05/24 08:23:08;;;;;;;2.05;1.48;;;;;;;;;;4932124;28;20441;-63
2022/05/24 08:25:34;;;;;;;1.30;1.08;;;;;;;;;;4933276;28;20054;-65
2022/05/24 08:28:02;;;;;;;2.85;1.40;;;;;;;;;;4933408;28;20345;-65
2022/05/24 08:30:29;;;;;;;2.10;1.45;;;;;;;;;;4932128;28;20395;-64
2022/05/24 08:32:56;;;;;;;2.60;1.40;;;;;;;;;;4932057;28;20345;-64
2022/05/24 08:35:22;;;;;;;1.80;1.23;;;;;;;;;;4932027;28;20440;-64
2022/05/24 08:37:47;;;;;;;1.52;1.05;;;;;;;;;;4932955;28;20310;-65
2022/05/24 08:40:16;;;;;;;2.53;1.33;;;;;;;;;;4931892;28;20372;-64
2022/05/24 08:42:51;;;;;;;1.55;1.20;;;;;;;;;;4914611;28;20842;-64
2022/05/24 08:48:26;;;;;;;1.55;1.33;;;;;;;;;;4932880;28;20185;-64
2022/05/24 08:51:02;;;;;;;1.95;1.42;;;;;;;;;;4931483;28;20445;-64
2022/05/24 08:53:37;;;;;;;2.42;1.45;;;;;;;;;;4914686;28;20395;-64
2022/05/24 08:56:19;;;;;;;1.27;1.10;;;;;;;;;;4913762;28;20105;-63
2022/05/24 08:58:50;;;;;;;8.23;1.40;;;;;;;;;;4931783;28;20345;-64
2022/05/24 09:01:21;;;;;;;2.50;1.58;;;;;;;;;;4931356;28;20341;-64
2022/05/24 09:03:47;;;;;;;2.53;1.52;;;;;;;;;;4913945;28;20364;-64
2022/05/24 09:06:34;;;;;;;3.00;1.48;;;;;;;;;;4932473;28;20408;-65
2022/05/24 09:09:12;;;;;;;2.53;1.50;;;;;;;;;;4931893;28;20457;-63
2022/05/24 09:11:50;;;;;;;1.92;0.90;;;;;;;;;;4931498;28;20038;-65
2022/05/24 09:14:36;;;;;;;2.15;1.42;;;;;;;;;;4931510;28;20384;-64
2022/05/24 09:17:48;;;;;;;1.15;1.00;;;;;;;;;;4915017;28;20457;-63
2022/05/24 09:20:30;;;;;;;2.22;1.20;;;;;;;;;;4877658;28;20485;-64
2022/05/24 09:23:09;;;;;;;1.83;1.23;;;;;;;;;;4931328;28;20117;-64
2022/05/24 09:25:34;;;;;;;2.03;1.50;;;;;;;;;;4931960;28;20374;-63
2022/05/24 09:28:00;;;;;;;2.85;1.40;;;;;;;;;;4931590;28;20387;-64
2022/05/24 09:30:28;;;;;;;1.50;0.90;;;;;;;;;;4931864;28;20442;-64
2022/05/24 09:33:18;;;;;;;2.45;1.20;;;;;;;;;;4931267;28;20322;-65
2022/05/24 09:35:44;;;;;;;2.47;1.38;;;;;;;;;;4931060;28;20524;-64
2022/05/24 09:38:16;;;;;;;2.17;1.08;;;;;;;;;;4931209;28;20325;-64
2022/05/24 09:40:56;;;;;;;8.27;1.60;;;;;;;;;;4931745;28;20441;-64
2022/05/24 13:01:24;;;;;;;4.25;2.10;;;;;;;;;;4930605;28;20376;-64
2022/05/24 13:04:06;;;;;;;2.47;1.08;;;;;;;;;;4914330;28;20365;-64
2022/05/24 13:06:33;;;;;;;1.25;1.10;;;;;;;;;;4932655;28;20448;-64
2022/05/24 13:09:26;;;;;;;2.50;1.30;;;;;;;;;;4932493;28;20415;-64
2022/05/24 13:11:55;;;;;;;5.25;1.50;;;;;;;;;;4931756;28;20035;-63
2022/05/24 13:14:35;;;;;;;;;;;;;;;;;;4914318;28;20389;-64
2022/05/24 13:17:03;;;;;;;3.30;1.23;;;;;;;;;;4932143;28;20329;-63
2022/05/24 13:19:29;;;;;;;2.83;1.30;;;;;;;;;;4914099;28;20349;-64
2022/05/24 13:21:54;;;;;;;3.78;1.50;;;;;;;;;;4914321;28;20353;-64
2022/05/24 13:24:20;;;;;;;1.52;1.25;;;;;;;;;;4914197;28;20437;-64
2022/05/24 13:27:05;;;;;;;4.97;1.30;;;;;;;;;;4931550;28;20357;-64
2022/05/24 13:33:32;;;;;;;2.40;1.42;;;;;;;;;;4930790;28;20365;-64
2022/05/24 13:34:59;;;;;;;2.00;1.30;;;;;;;;;;4916448;28;20396;-65
2022/05/24 13:37:45;;;;;;;2.47;1.38;;;;;;;;;;4931236;28;20031;-63
2022/05/24 13:40:10;;;;;;;5.32;1.50;;;;;;;;;;4932317;28;20329;-65
2022/05/24 13:42:51;;;;;;;1.27;1.00;;;;;;;;;;4932067;28;20352;-64
2022/05/24 13:45:21;;;;;;;2.33;1.30;;;;;;;;;;4930915;28;20540;-64
2022/05/24 13:47:56;;;;;;;3.17;1.33;;;;;;;;;;4931942;28;20397;-64
2022/05/24 13:50:36;;;;;;;2.13;1.38;;;;;;;;;;4930875;28;20096;-65
2022/05/24 13:53:03;;;;;;;2.97;1.45;;;;;;;;;;4931003;28;20433;-65
2022/05/24 13:59:41;;;;;;;1.95;1.40;;;;;;;;;;4932665;28;20515;-64
2022/05/24 14:02:12;;;;;;;2.35;1.40;;;;;;;;;;4922788;28;20553;-65
2022/05/24 14:04:40;;;;;;;2.42;1.20;;;;;;;;;;4930555;28;20421;-64
2022/05/24 14:07:05;;;;;;;2.90;1.08;;;;;;;;;;4930539;28;20381;-65
2022/05/24 14:09:33;;;;;;;1.80;1.23;;;;;;;;;;4930916;28;20456;-65
2022/05/24 14:12:02;;;;;;;4.72;1.48;;;;;;;;;;4932597;28;20488;-65
2022/05/24 14:14:28;;;;;;;3.78;1.42;;;;;;;;;;4930241;28;20473;-65
2022/05/24 14:16:54;;;;;;;2.20;1.40;;;;;;;;;;4930742;28;20456;-65
2022/05/24 14:19:20;;;;;;;2.92;1.40;;;;;;;;;;4932074;28;20022;-65
2022/05/24 14:21:45;;;;;;;4.35;1.58;;;;;;;;;;4930797;28;20437;-64
2022/05/24 14:24:14;;;;;;;1.45;1.13;;;;;;;;;;4930376;28;20433;-64
2022/05/24 14:26:44;;;;;;;1.83;1.13;;;;;;;;;;4931903;28;20352;-64
2022/05/24 14:29:10;;;;;;;1.73;1.10;;;;;;;;;;4932282;28;20089;-63
2022/05/24 14:31:36;;;;;;;2.33;1.15;;;;;;;;;;4930460;28;20575;-65
2022/05/24 14:34:03;;;;;;;1.90;1.20;;;;;;;;;;4931865;28;20050;-64
2022/05/24 14:36:29;;;;;;;3.15;1.40;;;;;;;;;;4913190;28;20494;-65
2022/05/24 14:38:54;;;;;;;1.23;1.02;;;;;;;;;;4930712;28;20364;-64
2022/05/24 14:41:21;;;;;;;2.35;1.35;;;;;;;;;;4930687;28;20038;-64
2022/05/24 14:43:50;;;;;;;1.95;1.30;;;;;;;;;;4931624;28;20365;-65
2022/05/24 14:46:16;;;;;;;1.38;1.10;;;;;;;;;;4930119;28;20404;-66
2022/05/24 14:48:42;;;;;;;1.15;1.05;;;;;;;;;;4930101;28;20452;-64
2022/05/24 14:51:08;;;;;;;3.00;0.93;;;;;;;;;;4930504;28;20488;-65
2022/05/24 14:53:37;;;;;;;2.50;1.30;;;;;;;;;;4931608;28;20523;-64
2022/05/24 14:56:02;;;;;;;3.85;1.55;;;;;;;;;;4930567;28;20414;-65
2022/05/24 14:58:28;;;;;;;1.42;1.20;;;;;;;;;;4912709;28;20471;-64
2022/05/24 15:00:53;;;;;;;2.22;1.45;;;;;;;;;;4930165;28;20461;-64
2022/05/24 15:03:18;;;;;;;2.58;1.40;;;;;;;;;;4930898;28;20528;-63
2022/05/24 15:05:43;;;;;;;1.77;1.42;;;;;;;;;;4930148;28;20421;-64
2022/05/24 15:16:23;;;;;;;1.77;1.38;;;;;;;;;;4931185;28;20357;-65
2022/05/24 15:18:49;;;;;;;3.58;1.40;;;;;;;;;;4932691;28;20038;-65
2022/05/24 15:21:17;;;;;;;3.13;1.13;;;;;;;;;;4934863;28;20057;-63
2022/05/24 15:23:43;;;;;;;2.10;1.40;;;;;;;;;;4917193;28;20507;-64
2022/05/24 15:26:14;;;;;;;5.40;1.70;;;;;;;;;;4916215;28;20519;-65
2022/05/24 15:28:41;;;;;;;2.67;1.42;;;;;;;;;;4933843;28;20416;-64
2022/05/24 15:31:07;;;;;;;2.25;1.27;;;;;;;;;;4916012;28;20507;-65
2022/05/24 15:33:33;;;;;;;4.85;1.40;;;;;;;;;;4915792;28;20035;-65
2022/05/24 15:35:58;;;;;;;1.92;1.50;;;;;;;;;;4933670;28;20023;-64
2022/05/24 15:38:23;;;;;;;1.65;1.20;;;;;;;;;;4933410;28;20322;-64
2022/05/24 15:40:49;;;;;;;2.95;1.48;;;;;;;;;;4933425;28;20471;-64
2022/05/24 15:43:14;;;;;;;1.63;1.10;;;;;;;;;;4933544;28;20034;-63
2022/05/24 15:45:41;;;;;;;1.60;1.08;;;;;;;;;;4933697;28;20038;-64
2022/05/24 15:48:07;;;;;;;2.47;1.50;;;;;;;;;;4933490;28;20034;-64
2022/05/24 15:50:32;;;;;;;2.10;1.30;;;;;;;;;;4934454;28;20431;-63
2022/05/24 15:53:01;;;;;;;3.83;1.25;;;;;;;;;;4934427;28;20406;-64
2022/05/24 15:55:27;;;;;;;;;;;;;;;;;;4933618;28;20209;-64
2022/05/24 15:57:52;;;;;;;2.63;1.48;;;;;;;;;;4932951;28;20304;-66
2022/05/24 16:00:18;;;;;;;2.60;1.45;;;;;;;;;;4932914;28;20571;-65
2022/05/24 16:02:44;;;;;;;2.25;1.52;;;;;;;;;;4932552;28;20560;-64
2022/05/24 16:10:38;;;;;;;2.88;1.23;;;;;;;;;;4935410;28;20487;-64
2022/05/24 16:13:05;;;;;;;2.53;1.40;;;;;;;;;;4932825;28;20414;-65
2022/05/24 16:15:30;;;;;;;2.78;1.20;;;;;;;;;;4933342;28;20326;-64
2022/05/24 16:18:06;;;;;;;2.22;1.33;;;;;;;;;;4932774;28;20396;-64
2022/05/24 16:20:36;;;;;;;2.13;1.30;;;;;;;;;;4932498;28;20372;-66
2022/05/24 16:23:03;;;;;;;4.88;1.63;;;;;;;;;;5081400;23;20399;-62
2022/05/24 16:25:28;;;;;;;2.50;1.35;;;;;;;;;;4914918;28;20445;-63
2022/05/24 16:27:54;;;;;;;4.50;1.88;;;;;;;;;;4911823;28;20341;-63
2022/05/24 16:30:19;;;;;;;1.55;1.15;;;;;;;;;;4913653;28;20484;-62
2022/05/24 16:32:44;;;;;;;1.60;1.30;;;;;;;;;;4913156;28;20421;-62
2022/05/24 16:35:09;;;;;;;6.30;1.73;;;;;;;;;;4913300;28;20425;-64
2022/05/24 16:37:35;;;;;;;3.60;1.80;;;;;;;;;;4913071;28;20525;-63
2022/05/24 16:40:03;;;;;;;2.78;1.73;;;;;;;;;;4913159;28;20401;-63
2022/05/24 16:42:28;;;;;;;2.72;1.67;;;;;;;;;;4912770;28;20031;-64
2022/05/24 16:44:54;;;;;;;2.72;1.50;;;;;;;;;;4927788;28;20030;-63
2022/05/24 16:47:19;;;;;;;1.55;1.33;;;;;;;;;;4913025;28;20434;-63
2022/05/24 16:49:45;;;;;;;2.75;1.85;;;;;;;;;;4913108;28;20341;-63
2022/05/24 16:52:12;;;;;;;2.10;1.48;;;;;;;;;;4913152;28;20448;-63
2022/05/24 17:00:14;;;;;;;5.88;1.95;;;;;;;;;;4913632;28;20337;-63
2022/05/24 17:02:53;;;;;;;2.10;1.50;;;;;;;;;;4914237;28;20417;-63
2022/05/24 17:05:19;;;;;;;1.88;1.40;;;;;;;;;;4912360;28;20448;-63
2022/05/24 17:07:45;;;;;;;3.15;1.60;;;;;;;;;;4913039;28;20352;-63
2022/05/24 17:10:11;;;;;;;3.35;2.03;;;;;;;;;;4912473;28;20458;-63
2022/05/24 17:12:40;;;;;;;3.40;1.70;;;;;;;;;;4895501;28;20452;-63
2022/05/24 17:15:07;;;;;;;2.53;1.67;;;;;;;;;;4912406;28;20451;-63
2022/05/24 17:17:33;;;;;;;2.03;1.30;;;;;;;;;;4913085;28;20500;-63
2022/05/24 17:19:58;;;;;;;2.75;1.88;;;;;;;;;;4913195;28;20305;-63
2022/05/24 17:22:24;;;;;;;3.15;1.65;;;;;;;;;;4912114;28;20442;-63
2022/05/24 17:24:50;;;;;;;2.10;1.55;;;;;;;;;;4911853;28;20492;-63
2022/05/24 17:27:15;;;;;;;6.72;1.80;;;;;;;;;;4912202;28;20364;-62
2022/05/24 17:29:41;;;;;;;1.50;1.20;;;;;;;;;;4910412;28;20558;-63
2022/05/24 17:32:11;;;;;;;2.40;1.58;;;;;;;;;;4912393;28;20352;-64
2022/05/24 17:34:36;;;;;;;3.60;2.25;;;;;;;;;;4894361;28;20321;-62
2022/05/24 17:37:03;;;;;;;4.68;1.67;;;;;;;;;;4912258;28;20306;-63
2022/05/24 17:39:29;;;;;;;2.72;1.58;;;;;;;;;;4911600;28;20350;-63
2022/05/24 17:41:54;;;;;;;2.38;1.58;;;;;;;;;;4911671;28;20353;-63
2022/05/24 17:44:20;;;;;;;2.30;1.48;;;;;;;;;;4894510;28;20426;-62
2022/05/24 17:46:45;;;;;;;2.58;1.65;;;;;;;;;;4912470;28;20031;-62
2022/05/24 17:49:12;;;;;;;2.13;1.50;;;;;;;;;;4912105;28;20333;-62
2022/05/24 17:51:37;;;;;;;2.40;1.80;;;;;;;;;;4895171;28;20465;-62
2022/05/24 17:54:03;;;;;;;2.92;1.67;;;;;;;;;;4912147;28;20326;-62
2022/05/24 17:56:28;;;;;;;4.60;1.73;;;;;;;;;;4911653;28;20054;-62
2022/05/24 17:58:53;;;;;;;3.65;2.03;;;;;;;;;;4912140;28;20481;-63
2022/05/24 18:01:19;;;;;;;1.85;1.40;;;;;;;;;;4911264;28;20031;-62
2022/05/24 18:03:46;;;;;;;5.75;2.40;;;;;;;;;;4911956;28;20326;-63
2022/05/24 18:06:12;;;;;;;2.88;1.83;;;;;;;;;;4911347;28;20425;-63
2022/05/24 18:08:37;;;;;;;2.28;1.50;;;;;;;;;;4911875;28;20369;-62
2022/05/24 18:11:03;;;;;;;2.90;1.90;;;;;;;;;;4911891;28;20434;-62
2022/05/24 18:13:29;;;;;;;4.53;2.00;;;;;;;;;;4911595;28;20493;-63
2022/05/24 18:15:55;;;;;;;2.42;1.42;;;;;;;;;;4911723;28;20430;-62
2022/05/24 18:18:21;;;;;;;3.08;1.90;;;;;;;;;;4911482;28;20464;-63
2022/05/24 18:20:50;;;;;;;3.80;2.03;;;;;;;;;;4911563;28;20373;-62
2022/05/24 18:23:20;;;;;;;2.78;2.13;;;;;;;;;;4894181;28;20421;-62
2022/05/24 18:34:23;;;;;;;3.53;2.08;;;;;;;;;;4912720;28;20365;-62
2022/05/24 18:36:49;;;;;;;3.85;1.85;;;;;;;;;;4909455;28;20372;-63
2022/05/24 18:39:14;;;;;;;3.78;2.63;;;;;;;;;;4893698;28;20456;-63
2022/05/24 18:41:40;;;;;;;3.10;2.00;;;;;;;;;;4911131;28;20329;-62
2022/05/24 18:44:05;;;;;;;6.95;1.98;;;;;;;;;;4911515;28;20539;-62
2022/05/24 18:46:31;;;;;;;3.33;2.10;;;;;;;;;;4911501;28;20364;-64
2022/05/24 18:48:56;;;;;;;3.30;1.80;;;;;;;;;;4912430;28;20389;-62
2022/05/24 18:51:21;;;;;;;3.05;2.10;;;;;;;;;;4913148;28;20345;-63
2022/05/24 18:53:47;;;;;;;3.38;1.90;;;;;;;;;;4914702;28;20342;-62
2022/05/24 18:56:13;;;;;;;3.70;2.35;;;;;;;;;;4915427;28;20389;-62
2022/05/24 18:58:39;;;;;;;4.50;2.45;;;;;;;;;;4897768;28;20432;-63
2022/05/24 19:01:09;;;;;;;4.22;2.10;;;;;;;;;;4915229;28;20461;-62
2022/05/24 19:03:35;;;;;;;4.55;2.58;;;;;;;;;;4915904;28;20414;-62
2022/05/24 19:06:00;;;;;;;4.15;2.58;;;;;;;;;;4915670;28;20353;-63
2022/05/24 19:08:29;;;;;;;5.18;2.58;;;;;;;;;;4914790;28;20445;-62